Time;durP1;ratioP1;P1;durP2;ratioP2;P2;SDS_P1;SDS_P2;PMS_P1;PMS_P2;Temp;Humidity;BMP_temperature;BMP_pressure;BME280_temperature;BME280_humidity;BME280_pressure;Samples;Min_cycle;Max_cycle;Signal;HPM_P1;HPM_P2
2023/08/21 00:00:41;;;;;;;0.20;0.20;;;;;;;16.05;77.04;99822.13;5032167;28;20045;-73
2023/08/21 00:03:08;;;;;;;0.20;0.20;;;;;;;16.06;77.14;99815.47;5044655;28;20044;-73
2023/08/21 00:05:34;;;;;;;0.20;0.20;;;;;;;16.13;76.94;99821.41;5040355;28;20045;-73
2023/08/21 00:08:00;;;;;;;0.20;0.20;;;;;;;16.13;77.23;99819.44;5031887;28;20049;-72
2023/08/21 00:10:27;;;;;;;0.20;0.20;;;;;;;16.07;76.95;99814.34;5032484;28;20059;-73
2023/08/21 00:12:54;;;;;;;0.20;0.20;;;;;;;16.09;76.60;99815.69;5027893;28;20108;-73
2023/08/21 00:15:20;;;;;;;0.20;0.20;;;;;;;16.03;76.43;99814.19;5015843;28;20406;-72
2023/08/21 00:17:47;;;;;;;0.20;0.20;;;;;;;15.97;76.36;99816.25;5037385;28;20512;-73
2023/08/21 00:20:13;;;;;;;0.20;0.20;;;;;;;15.93;75.41;99811.66;5031678;28;20073;-72
2023/08/21 00:22:39;;;;;;;0.20;0.20;;;;;;;15.86;75.64;99814.78;5029223;28;20056;-73
2023/08/21 00:25:06;;;;;;;0.20;0.20;;;;;;;15.79;75.00;99811.66;5014796;28;20045;-72
2023/08/21 00:27:33;;;;;;;0.20;0.20;;;;;;;15.69;75.09;99821.78;5024056;28;20544;-74
2023/08/21 00:30:01;;;;;;;0.10;0.10;;;;;;;15.55;75.48;99823.72;5035053;28;20073;-73
2023/08/21 00:32:30;;;;;;;0.20;0.20;;;;;;;15.42;75.78;99823.44;5023907;28;20045;-77
2023/08/21 00:34:57;;;;;;;0.20;0.20;;;;;;;15.41;75.73;99829.25;5026949;28;20449;-76
2023/08/21 00:37:23;;;;;;;0.20;0.20;;;;;;;15.44;75.82;99837.72;5041772;28;20053;-77
2023/08/21 00:39:50;;;;;;;0.20;0.20;;;;;;;15.40;76.13;99822.13;5044167;28;20139;-78
2023/08/21 00:42:16;;;;;;;0.20;0.20;;;;;;;15.54;75.52;99830.38;5023644;28;20536;-77
2023/08/21 00:44:42;;;;;;;0.20;0.20;;;;;;;15.53;75.40;99837.00;5022260;28;20503;-77
2023/08/21 00:47:11;;;;;;;0.20;0.20;;;;;;;15.47;75.46;99832.72;5023307;28;20131;-77
2023/08/21 00:49:39;;;;;;;0.20;0.20;;;;;;;15.42;75.65;99833.66;5025478;28;20403;-77
2023/08/21 00:52:08;;;;;;;0.20;0.20;;;;;;;15.44;76.10;99834.94;5037138;28;20145;-76
2023/08/21 00:54:34;;;;;;;0.20;0.20;;;;;;;15.43;76.38;99838.84;5022566;28;20048;-77
2023/08/21 00:57:02;;;;;;;0.20;0.20;;;;;;;15.40;76.46;99833.94;5029606;28;20102;-77
2023/08/21 00:59:29;;;;;;;0.20;0.20;;;;;;;15.39;77.14;99831.50;5025480;28;20099;-77
2023/08/21 01:01:56;;;;;;;0.20;0.20;;;;;;;15.36;77.39;99824.66;5043231;28;20071;-77
2023/08/21 01:04:24;;;;;;;0.20;0.20;;;;;;;15.32;77.19;99834.66;5029014;28;20072;-78
2023/08/21 01:06:50;;;;;;;0.20;0.20;;;;;;;15.22;76.91;99832.09;5034777;28;20144;-77
2023/08/21 01:09:27;;;;;;;0.20;0.20;;;;;;;15.15;77.90;99821.50;5025686;28;20481;-77
2023/08/21 01:12:03;;;;;;;0.20;0.20;;;;;;;15.15;77.71;99836.09;5026001;28;20657;-76
2023/08/21 01:14:46;;;;;;;0.20;0.20;;;;;;;15.13;78.11;99834.75;5037869;28;20441;-77
2023/08/21 01:17:14;;;;;;;0.20;0.20;;;;;;;15.06;78.45;99840.66;5041018;28;20175;-77
2023/08/21 01:19:44;;;;;;;0.20;0.20;;;;;;;14.97;79.23;99837.78;5032174;28;20045;-72
2023/08/21 01:22:11;;;;;;;0.20;0.20;;;;;;;14.89;79.43;99838.47;5035637;28;20075;-73
2023/08/21 01:24:39;;;;;;;0.20;0.20;;;;;;;14.87;79.67;99837.97;5036409;28;20044;-72
2023/08/21 01:27:06;;;;;;;0.20;0.20;;;;;;;14.84;79.77;99839.41;5029232;28;20049;-73
2023/08/21 01:29:33;;;;;;;0.20;0.20;;;;;;;14.84;80.38;99839.41;5029515;28;20092;-74
2023/08/21 01:32:07;;;;;;;0.13;0.13;;;;;;;14.82;80.50;99849.09;5008195;28;20045;-72
2023/08/21 01:34:37;;;;;;;0.20;0.20;;;;;;;14.81;81.14;99839.19;5023857;28;20057;-71
2023/08/21 01:37:05;;;;;;;0.20;0.20;;;;;;;14.81;80.68;99842.75;5023190;28;20056;-73
2023/08/21 01:39:32;;;;;;;0.10;0.10;;;;;;;14.72;81.39;99839.88;5016339;28;20527;-72
2023/08/21 01:42:00;;;;;;;0.20;0.20;;;;;;;14.72;81.70;99847.31;5026298;28;20147;-73
2023/08/21 01:44:26;;;;;;;0.20;0.20;;;;;;;14.67;81.22;99845.44;5046073;28;20547;-72
2023/08/21 01:46:52;;;;;;;0.20;0.20;;;;;;;14.66;81.62;99841.06;5046054;28;20057;-71
2023/08/21 01:49:19;;;;;;;0.20;0.20;;;;;;;14.58;81.62;99837.06;5007868;28;20051;-73
2023/08/21 01:51:46;;;;;;;0.10;0.10;;;;;;;14.57;81.46;99837.34;5028668;28;20049;-72
2023/08/21 01:54:12;;;;;;;0.10;0.10;;;;;;;14.44;82.51;99831.53;5011661;28;20501;-73
2023/08/21 01:56:38;;;;;;;0.20;0.20;;;;;;;14.51;82.57;99836.63;5012319;28;20066;-72
2023/08/21 01:59:06;;;;;;;0.20;0.20;;;;;;;14.46;83.18;99833.97;5035260;28;20420;-73
2023/08/21 02:01:33;;;;;;;0.20;0.20;;;;;;;14.43;83.84;99837.31;5038915;28;20119;-73
2023/08/21 02:04:00;;;;;;;0.20;0.20;;;;;;;14.39;83.98;99839.03;5026141;28;20068;-72
2023/08/21 02:06:26;;;;;;;0.20;0.20;;;;;;;14.27;84.20;99833.97;5032435;28;20562;-73
2023/08/21 02:08:52;;;;;;;0.20;0.20;;;;;;;14.17;84.40;99834.94;5032396;28;20057;-73
2023/08/21 02:11:18;;;;;;;0.20;0.20;;;;;;;14.12;84.99;99848.78;5018166;28;20901;-72
2023/08/21 02:13:44;;;;;;;0.20;0.20;;;;;;;13.90;85.08;99822.72;5024829;28;20535;-72
2023/08/21 02:16:12;;;;;;;0.10;0.10;;;;;;;14.00;85.72;99841.78;5027801;28;20080;-72
2023/08/21 02:18:41;;;;;;;0.20;0.20;;;;;;;14.02;84.98;99842.31;5032179;28;20428;-73
2023/08/21 02:21:07;;;;;;;0.20;0.20;;;;;;;14.06;84.50;99841.75;5008250;28;20635;-73
2023/08/21 02:23:33;;;;;;;0.15;0.15;;;;;;;14.04;84.94;99848.31;5040080;28;20072;-72
2023/08/21 02:26:00;;;;;;;0.20;0.20;;;;;;;13.98;84.62;99840.47;5033907;28;20428;-72
2023/08/21 02:28:26;;;;;;;0.20;0.20;;;;;;;13.92;85.01;99844.38;5041642;28;21206;-72
2023/08/21 02:30:52;;;;;;;0.20;0.20;;;;;;;13.82;84.46;99837.94;5033104;28;20156;-73
2023/08/21 02:33:20;;;;;;;0.20;0.20;;;;;;;13.82;84.48;99837.94;5036939;28;20055;-73
2023/08/21 02:35:46;;;;;;;;;;;;;;;13.81;84.67;99836.28;5031369;28;20852;-72
2023/08/21 02:38:12;;;;;;;0.20;0.20;;;;;;;13.77;84.99;99839.94;5035340;28;20034;-73
2023/08/21 02:40:38;;;;;;;0.20;0.20;;;;;;;13.77;84.80;99839.94;5031647;28;20053;-73
2023/08/21 02:43:04;;;;;;;0.20;0.20;;;;;;;13.82;84.87;99837.09;5032262;28;20057;-73
2023/08/21 02:45:31;;;;;;;0.20;0.20;;;;;;;13.89;84.58;99835.63;5046293;28;20206;-74
2023/08/21 02:47:58;;;;;;;0.20;0.20;;;;;;;13.93;84.74;99835.03;5024989;28;20055;-72
2023/08/21 02:50:26;;;;;;;0.20;0.20;;;;;;;13.90;84.60;99839.22;5020814;28;20330;-73
2023/08/21 02:52:53;;;;;;;0.20;0.20;;;;;;;13.90;84.51;99833.72;5039241;28;20065;-72
2023/08/21 02:55:20;;;;;;;0.20;0.20;;;;;;;13.89;85.05;99832.06;5043871;28;20056;-73
2023/08/21 02:57:46;;;;;;;0.20;0.20;;;;;;;13.87;84.47;99835.13;5032694;28;20091;-74
2023/08/21 03:00:13;;;;;;;0.20;0.20;;;;;;;13.93;84.68;99837.78;5040256;28;20160;-73
2023/08/21 03:02:43;;;;;;;0.20;0.20;;;;;;;13.98;84.56;99848.72;5033037;28;20045;-72
2023/08/21 03:05:09;;;;;;;0.20;0.20;;;;;;;14.00;84.50;99846.50;5046865;28;20049;-73
2023/08/21 03:07:37;;;;;;;0.13;0.13;;;;;;;14.02;84.17;99850.56;5029285;28;20045;-73
2023/08/21 03:10:04;;;;;;;0.30;0.30;;;;;;;14.07;83.97;99844.16;5026216;28;20378;-73
2023/08/21 03:12:31;;;;;;;0.20;0.20;;;;;;;14.13;83.74;99850.41;5028933;28;20045;-73
2023/08/21 03:14:57;;;;;;;0.20;0.20;;;;;;;14.17;83.53;99854.19;5041662;28;20152;-73
2023/08/21 03:17:24;;;;;;;0.20;0.20;;;;;;;14.20;83.07;99856.34;5026993;28;20045;-73
2023/08/21 03:19:51;;;;;;;0.20;0.20;;;;;;;14.24;82.85;99856.56;5038673;28;20110;-71
2023/08/21 03:22:17;;;;;;;0.20;0.20;;;;;;;14.26;82.96;99857.09;5026486;28;20402;-73
2023/08/21 03:24:45;;;;;;;0.20;0.20;;;;;;;14.36;82.64;99864.38;5018079;28;20059;-74
2023/08/21 03:27:11;;;;;;;;;;;;;;;14.37;82.22;99860.53;5033244;28;20132;-72
2023/08/21 03:29:37;;;;;;;0.20;0.20;;;;;;;14.37;82.24;99866.03;5033792;28;20024;-73
2023/08/21 03:32:03;;;;;;;0.20;0.20;;;;;;;14.41;82.11;99862.34;5028552;28;20136;-72
2023/08/21 03:34:30;;;;;;;0.20;0.20;;;;;;;14.42;82.28;99854.94;5035378;28;20156;-73
2023/08/21 03:37:00;;;;;;;0.20;0.20;;;;;;;14.53;82.37;99863.84;5000875;28;20139;-73
2023/08/21 03:39:30;;;;;;;0.20;0.20;;;;;;;14.64;81.21;99856.22;5027584;28;20527;-72
2023/08/21 03:41:58;;;;;;;0.20;0.20;;;;;;;14.65;80.35;99863.38;5044009;28;20115;-78
2023/08/21 03:44:25;;;;;;;0.20;0.20;;;;;;;14.76;80.89;99864.88;5016845;28;20057;-77
2023/08/21 03:46:51;;;;;;;0.20;0.20;;;;;;;14.85;80.35;99865.81;5025434;28;20060;-76
2023/08/21 03:49:17;;;;;;;0.20;0.20;;;;;;;14.93;79.76;99872.56;5042317;28;20041;-77
2023/08/21 03:51:43;;;;;;;0.20;0.20;;;;;;;14.98;79.53;99879.88;5026152;28;20069;-77
2023/08/21 03:54:10;;;;;;;0.20;0.20;;;;;;;15.05;79.06;99871.25;5041584;28;20126;-77
2023/08/21 03:56:37;;;;;;;0.20;0.20;;;;;;;15.06;78.66;99868.19;5025912;28;20045;-78
2023/08/21 03:59:04;;;;;;;0.20;0.20;;;;;;;15.15;78.70;99874.66;5043441;28;20044;-76
2023/08/21 04:01:30;;;;;;;0.20;0.20;;;;;;;15.23;78.20;99875.88;5024938;28;20136;-77
2023/08/21 04:03:57;;;;;;;0.20;0.20;;;;;;;15.30;77.31;99873.53;5034927;28;20048;-77
2023/08/21 04:06:23;;;;;;;0.20;0.20;;;;;;;15.32;76.67;99876.00;5020921;28;20050;-77
2023/08/21 04:08:49;;;;;;;0.20;0.20;;;;;;;15.28;75.86;99873.03;5032967;28;20615;-76
2023/08/21 04:11:16;;;;;;;0.30;0.30;;;;;;;15.27;75.55;99873.31;5030959;28;20049;-77
2023/08/21 04:13:43;;;;;;;0.20;0.20;;;;;;;15.30;75.53;99873.53;5024881;28;20468;-77
2023/08/21 04:16:12;;;;;;;0.30;0.30;;;;;;;15.37;74.75;99869.53;5040336;28;20044;-78
2023/08/21 04:18:38;;;;;;;0.30;0.30;;;;;;;15.33;75.07;99866.59;5047946;28;20068;-74
2023/08/21 04:21:06;;;;;;;0.20;0.20;;;;;;;15.37;75.26;99869.53;5046186;28;20204;-73
2023/08/21 04:23:32;;;;;;;0.20;0.20;;;;;;;15.43;74.64;99869.13;5032596;28;20327;-71
2023/08/21 04:26:01;;;;;;;0.20;0.20;;;;;;;15.45;73.82;99868.84;5042439;28;20098;-73
2023/08/21 04:28:27;;;;;;;0.20;0.20;;;;;;;15.50;74.08;99863.22;5027580;28;20080;-73
2023/08/21 04:30:53;;;;;;;0.20;0.20;;;;;;;15.59;74.21;99866.91;5023730;28;20053;-73
2023/08/21 04:33:21;;;;;;;0.30;0.30;;;;;;;15.69;73.70;99867.81;5031003;28;20045;-73
2023/08/21 04:35:47;;;;;;;0.30;0.30;;;;;;;15.80;72.75;99865.66;5047824;28;20048;-72
2023/08/21 04:38:14;;;;;;;0.28;0.28;;;;;;;15.82;71.90;99866.16;5010665;28;20106;-73
2023/08/21 04:40:40;;;;;;;0.30;0.30;;;;;;;15.86;71.61;99869.94;5028696;28;20139;-73
2023/08/21 04:43:07;;;;;;;0.20;0.20;;;;;;;15.92;71.24;99870.66;5032861;28;20592;-77
2023/08/21 04:45:37;;;;;;;0.30;0.30;;;;;;;15.94;71.45;99880.28;5024242;28;20587;-77
2023/08/21 04:48:04;;;;;;;0.20;0.20;;;;;;;16.00;70.90;99870.75;5027295;28;20622;-77
2023/08/21 04:50:32;;;;;;;0.20;0.20;;;;;;;16.07;70.99;99872.25;5022818;28;20049;-77
2023/08/21 04:52:58;;;;;;;0.30;0.30;;;;;;;16.15;71.35;99868.78;5024682;28;20045;-77
2023/08/21 04:55:25;;;;;;;0.28;0.28;;;;;;;16.26;70.18;99874.88;5012680;28;20125;-77
2023/08/21 04:57:52;;;;;;;0.28;0.28;;;;;;;16.29;69.80;99874.25;5044385;28;20053;-77
2023/08/21 05:00:18;;;;;;;0.30;0.30;;;;;;;16.34;69.94;99873.31;5026508;28;20049;-77
2023/08/21 05:02:45;;;;;;;0.30;0.30;;;;;;;16.38;69.96;99877.06;5036914;28;20059;-77
2023/08/21 05:05:12;;;;;;;0.30;0.30;;;;;;;16.46;69.63;99876.34;5033951;28;20049;-78
2023/08/21 05:07:39;;;;;;;0.30;0.30;;;;;;;16.51;69.46;99881.72;5032584;28;20096;-78
2023/08/21 05:10:07;;;;;;;0.30;0.30;;;;;;;16.58;68.79;99878.53;5029390;28;20141;-78
2023/08/21 05:12:35;;;;;;;0.20;0.20;;;;;;;16.62;68.75;99874.00;5040612;28;20076;-77
2023/08/21 05:15:02;;;;;;;0.20;0.20;;;;;;;16.64;68.07;99869.03;5031555;28;20067;-77
2023/08/21 05:17:31;;;;;;;0.30;0.30;;;;;;;16.66;67.54;99860.41;5027840;28;20045;-77
2023/08/21 05:19:57;;;;;;;0.30;0.30;;;;;;;16.75;67.13;99877.84;5027252;28;20917;-73
2023/08/21 05:22:24;;;;;;;0.20;0.20;;;;;;;16.81;67.54;99878.53;5020884;28;20045;-73
2023/08/21 05:24:52;;;;;;;0.30;0.30;;;;;;;16.90;67.74;99873.06;5001670;28;20653;-73
2023/08/21 05:27:18;;;;;;;0.30;0.30;;;;;;;16.92;66.72;99871.59;5038068;28;20315;-73
2023/08/21 05:29:45;;;;;;;0.30;0.30;;;;;;;16.93;66.94;99870.47;5019339;28;20045;-73
2023/08/21 05:32:12;;;;;;;0.30;0.30;;;;;;;16.96;66.14;99869.88;5024037;28;20865;-72
2023/08/21 05:34:39;;;;;;;0.20;0.20;;;;;;;16.94;66.38;99879.59;5031375;28;20433;-72
2023/08/21 05:37:07;;;;;;;0.20;0.20;;;;;;;16.95;66.51;99884.81;5030416;28;20049;-72
2023/08/21 05:39:33;;;;;;;0.30;0.30;;;;;;;17.04;65.72;99879.38;5018652;28;20509;-72
2023/08/21 05:42:04;;;;;;;0.20;0.20;;;;;;;17.10;65.80;99880.03;5031556;28;20057;-72
2023/08/21 05:44:31;;;;;;;0.30;0.30;;;;;;;17.18;65.91;99872.94;5027040;28;20308;-73
2023/08/21 05:46:59;;;;;;;0.47;0.30;;;;;;;17.30;65.44;99870.38;5014900;28;20521;-78
2023/08/21 05:49:26;;;;;;;0.22;0.22;;;;;;;17.29;65.10;99866.81;5032634;28;20053;-77
2023/08/21 05:51:53;;;;;;;0.30;0.30;;;;;;;17.35;64.72;99866.66;5033735;28;20049;-73
2023/08/21 05:54:20;;;;;;;0.20;0.20;;;;;;;17.37;63.79;99865.22;5022962;28;20124;-77
2023/08/21 05:56:47;;;;;;;0.30;0.30;;;;;;;17.31;63.71;99865.66;5037485;28;20045;-77
2023/08/21 05:59:27;;;;;;;0.30;0.30;;;;;;;17.41;63.65;99866.19;5040634;28;20045;-73
2023/08/21 06:01:55;;;;;;;0.30;0.30;;;;;;;17.66;63.18;99863.84;5019715;28;20041;-72
2023/08/21 06:04:21;;;;;;;0.30;0.30;;;;;;;17.82;62.07;99860.63;5034413;28;20049;-72
2023/08/21 06:06:55;;;;;;;0.30;0.30;;;;;;;18.13;61.99;99863.28;5022574;28;20133;-73
2023/08/21 06:09:22;;;;;;;0.30;0.30;;;;;;;18.48;60.58;99862.47;5035523;28;20056;-73
2023/08/21 06:11:49;;;;;;;0.30;0.30;;;;;;;18.69;59.66;99853.50;5012043;28;20052;-73
2023/08/21 06:14:17;;;;;;;0.30;0.30;;;;;;;18.93;58.98;99849.38;5035546;28;20053;-73
2023/08/21 06:16:45;;;;;;;0.30;0.30;;;;;;;18.99;57.65;99856.38;5034845;28;20072;-73
2023/08/21 06:19:11;;;;;;;0.30;0.30;;;;;;;18.99;58.20;99859.97;5005744;28;20045;-73
2023/08/21 06:21:38;;;;;;;0.30;0.30;;;;;;;19.27;57.39;99856.75;5034805;28;20524;-78
2023/08/21 06:24:05;;;;;;;0.30;0.30;;;;;;;19.54;55.80;99849.16;5034178;28;20135;-77
2023/08/21 06:26:31;;;;;;;0.30;0.30;;;;;;;19.51;55.39;99854.53;5038519;28;20055;-77
2023/08/21 06:28:58;;;;;;;0.30;0.30;;;;;;;19.12;56.86;99858.13;5038225;28;20110;-78
2023/08/21 06:31:25;;;;;;;0.30;0.30;;;;;;;19.09;56.79;99855.22;5043620;28;20080;-77
2023/08/21 06:33:53;;;;;;;0.30;0.30;;;;;;;18.96;57.07;99851.47;5033651;28;20044;-77
2023/08/21 06:36:19;;;;;;;0.40;0.40;;;;;;;18.89;56.89;99852.00;5023504;28;20052;-78
2023/08/21 06:38:46;;;;;;;0.30;0.30;;;;;;;19.27;55.75;99854.00;5020502;28;20041;-78
2023/08/21 06:41:12;;;;;;;0.40;0.40;;;;;;;19.61;54.48;99850.59;5013184;28;20136;-77
2023/08/21 06:43:39;;;;;;;0.20;0.20;;;;;;;19.97;53.75;99850.03;5028330;28;20072;-77
2023/08/21 06:46:05;;;;;;;0.30;0.30;;;;;;;19.80;54.14;99844.59;5028018;28;20045;-73
2023/08/21 06:48:35;;;;;;;0.30;0.30;;;;;;;19.76;53.42;99836.16;5027309;28;20580;-72
2023/08/21 06:51:02;;;;;;;0.30;0.30;;;;;;;19.72;53.19;99851.81;5021357;28;20829;-72
2023/08/21 06:53:28;;;;;;;0.30;0.30;;;;;;;19.67;53.00;99857.56;5036206;28;20072;-72
2023/08/21 06:55:55;;;;;;;0.30;0.30;;;;;;;19.65;52.91;99855.13;5042858;28;20057;-72
2023/08/21 06:58:21;;;;;;;0.30;0.30;;;;;;;19.42;53.27;99868.44;5033399;28;20307;-72
2023/08/21 07:00:48;;;;;;;0.40;0.40;;;;;;;19.28;53.53;99863.13;5022901;28;20512;-72
2023/08/21 07:03:14;;;;;;;0.30;0.30;;;;;;;19.72;52.29;99854.59;5028344;28;20465;-77
2023/08/21 07:05:47;;;;;;;0.30;0.30;;;;;;;20.42;50.67;99863.59;5044599;28;20056;-77
2023/08/21 07:08:13;;;;;;;0.40;0.40;;;;;;;21.18;48.61;99863.50;5038352;28;20216;-77
2023/08/21 07:10:40;;;;;;;0.40;0.40;;;;;;;21.67;47.36;99862.75;5037563;28;20049;-77
2023/08/21 07:13:06;;;;;;;0.40;0.40;;;;;;;22.16;45.81;99866.59;5028286;28;20582;-77
2023/08/21 07:15:33;;;;;;;0.40;0.40;;;;;;;22.42;45.32;99860.59;5039200;28;20049;-78
2023/08/21 07:17:59;;;;;;;0.30;0.30;;;;;;;22.57;44.27;99852.69;5039763;28;20052;-72
2023/08/21 07:20:25;;;;;;;0.30;0.30;;;;;;;22.55;44.14;99853.03;5033992;28;20952;-73
2023/08/21 07:22:53;;;;;;;0.30;0.30;;;;;;;22.09;45.15;99854.09;5031611;28;20049;-73
2023/08/21 07:25:19;;;;;;;0.30;0.30;;;;;;;21.95;44.84;99867.59;5025899;28;20041;-73
2023/08/21 07:27:45;;;;;;;0.30;0.30;;;;;;;21.53;46.05;99871.41;5045135;28;20045;-73
2023/08/21 07:30:16;;;;;;;0.27;0.27;;;;;;;20.99;46.88;99866.81;5042256;28;20049;-73
2023/08/21 07:32:42;;;;;;;0.20;0.20;;;;;;;20.95;47.11;99867.50;5042297;28;20118;-73
2023/08/21 07:35:09;;;;;;;0.30;0.30;;;;;;;20.66;47.78;99879.56;5027350;28;20045;-73
2023/08/21 07:37:35;;;;;;;0.30;0.30;;;;;;;20.44;48.47;99877.94;5040737;28;20071;-73
2023/08/21 07:40:09;;;;;;;0.30;0.30;;;;;;;20.30;48.82;99875.47;5033737;28;20136;-73
2023/08/21 07:42:35;;;;;;;0.30;0.30;;;;;;;20.29;48.79;99876.59;5026758;28;20073;-78
2023/08/21 07:45:02;;;;;;;0.30;0.30;;;;;;;20.26;48.77;99876.13;5040721;28;20140;-79
2023/08/21 07:47:30;;;;;;;0.30;0.30;;;;;;;20.19;49.32;99873.09;5044838;28;20524;-78
2023/08/21 07:50:00;;;;;;;0.40;0.40;;;;;;;20.58;48.79;99872.94;5041972;28;20045;-78
2023/08/21 07:52:26;;;;;;;0.30;0.30;;;;;;;21.15;47.29;99866.97;5024894;28;20140;-79
2023/08/21 07:54:53;;;;;;;0.30;0.30;;;;;;;20.96;47.20;99863.56;5040841;28;20053;-73
2023/08/21 07:57:20;;;;;;;0.30;0.30;;;;;;;20.68;47.23;99868.91;5028679;28;20084;-73
2023/08/21 07:59:47;;;;;;;0.30;0.30;;;;;;;20.51;47.25;99859.59;5027513;28;20075;-78
2023/08/21 08:02:13;;;;;;;0.30;0.30;;;;;;;20.38;48.18;99863.47;5035920;28;20051;-77
2023/08/21 08:04:40;;;;;;;0.20;0.20;;;;;;;20.23;48.27;99862.94;5023843;28;20509;-79
2023/08/21 08:07:07;;;;;;;0.50;0.50;;;;;;;20.48;48.49;99853.91;5028814;28;20477;-74
2023/08/21 08:09:33;;;;;;;;;;;;;;;21.15;46.75;99856.69;5042253;28;20037;-73
2023/08/21 08:11:59;;;;;;;0.30;0.30;;;;;;;21.08;46.39;99859.19;5034941;28;19924;-74
2023/08/21 08:14:31;;;;;;;0.30;0.30;;;;;;;20.82;46.55;99857.50;5020717;28;20095;-74
2023/08/21 08:16:57;;;;;;;0.40;0.40;;;;;;;20.71;46.98;99861.88;5044624;28;20204;-74
2023/08/21 08:19:25;;;;;;;0.45;0.45;;;;;;;21.85;45.13;99848.56;5029662;28;20110;-73
2023/08/21 08:21:51;;;;;;;;;;;;;;;23.26;42.09;99858.13;5044730;28;20048;-73
2023/08/21 08:24:19;;;;;;;0.30;0.30;;;;;;;24.08;39.46;99847.28;5042590;28;19928;-73
2023/08/21 08:26:46;;;;;;;0.30;0.30;;;;;;;23.35;40.42;99844.78;5024877;28;20056;-73
2023/08/21 08:29:13;;;;;;;0.30;0.30;;;;;;;22.43;41.97;99837.16;5027582;28;20050;-74
2023/08/21 08:31:41;;;;;;;0.30;0.30;;;;;;;21.88;43.28;99845.09;5026688;28;20045;-73
2023/08/21 08:34:07;;;;;;;0.50;0.50;;;;;;;21.72;43.19;99842.22;5029644;28;20052;-74
2023/08/21 08:36:34;;;;;;;0.30;0.30;;;;;;;22.22;42.61;99848.47;5030291;28;20156;-73
2023/08/21 08:39:00;;;;;;;0.47;0.47;;;;;;;22.59;41.66;99834.44;5036970;28;20432;-73
2023/08/21 08:41:33;;;;;;;0.60;0.50;;;;;;;23.68;39.79;99831.63;5021469;28;20114;-73
2023/08/21 08:44:02;;;;;;;0.40;0.40;;;;;;;24.13;37.97;99815.47;5047210;28;20060;-78
2023/08/21 08:46:30;;;;;;;0.30;0.30;;;;;;;23.38;39.05;99826.53;5044996;28;20053;-77
2023/08/21 08:49:00;;;;;;;0.50;0.50;;;;;;;22.91;40.81;99828.94;5044085;28;20516;-77
2023/08/21 08:51:30;;;;;;;0.30;0.30;;;;;;;23.41;39.60;99828.59;4684148;28;9999727;-77
2023/08/21 08:53:58;;;;;;;0.40;0.40;;;;;;;23.12;39.70;99821.47;5024507;28;20076;-77
2023/08/21 08:56:26;;;;;;;0.30;0.30;;;;;;;23.09;39.42;99818.22;5038605;28;20048;-78
2023/08/21 08:58:52;;;;;;;0.30;0.30;;;;;;;22.65;40.12;99810.72;5041405;28;20044;-77
2023/08/21 09:01:19;;;;;;;0.40;0.40;;;;;;;22.28;41.01;99821.19;5033475;28;20101;-78
2023/08/21 09:03:45;;;;;;;0.40;0.40;;;;;;;22.17;41.29;99821.72;5043848;28;20071;-78
2023/08/21 09:06:13;;;;;;;0.40;0.40;;;;;;;22.82;40.46;99819.91;5037416;28;20046;-79
2023/08/21 09:08:42;;;;;;;0.50;0.50;;;;;;;22.78;40.30;99819.81;5027525;28;20041;-79
2023/08/21 09:11:08;;;;;;;0.30;0.30;;;;;;;22.89;39.87;99813.72;5025528;28;20057;-79
2023/08/21 09:13:35;;;;;;;0.30;0.30;;;;;;;22.62;40.18;99814.22;5020008;28;20144;-79
2023/08/21 09:16:01;;;;;;;0.60;0.60;;;;;;;22.36;40.66;99812.69;5042706;28;20178;-79
2023/08/21 09:18:28;;;;;;;0.50;0.50;;;;;;;23.24;39.03;99821.38;5043358;28;20067;-78
2023/08/21 09:20:56;;;;;;;0.50;0.50;;;;;;;24.23;37.30;99811.28;5049810;28;20059;-79
2023/08/21 09:23:23;;;;;;;0.50;0.50;;;;;;;25.25;35.49;99819.53;5040955;28;20548;-79
2023/08/21 09:25:50;;;;;;;0.60;0.60;;;;;;;26.22;33.60;99810.13;5042378;28;20057;-78
2023/08/21 09:28:22;;;;;;;0.38;0.38;;;;;;;26.64;32.53;99809.00;5045185;28;20265;-80
2023/08/21 09:30:50;;;;;;;0.30;0.30;;;;;;;26.33;32.76;99803.50;5027820;28;20072;-79
2023/08/21 09:33:19;;;;;;;0.30;0.30;;;;;;;25.22;34.57;99808.31;5029966;28;20128;-78
2023/08/21 09:35:46;;;;;;;0.30;0.30;;;;;;;24.55;36.04;99813.88;5039624;28;20045;-79
2023/08/21 09:38:14;;;;;;;0.60;0.60;;;;;;;23.98;36.71;99800.38;5043782;28;20518;-79
2023/08/21 09:40:43;;;;;;;0.50;0.50;;;;;;;24.46;35.71;99794.56;5028271;28;20724;-79
2023/08/21 09:43:11;;;;;;;0.65;0.65;;;;;;;24.91;35.13;99803.41;5023573;28;20053;-80
2023/08/21 09:45:38;;;;;;;0.68;0.68;;;;;;;25.99;33.95;99797.03;5026208;28;20045;-73
2023/08/21 09:48:06;;;;;;;0.60;0.60;;;;;;;27.13;31.72;99781.84;5026602;28;20160;-73
2023/08/21 09:50:33;;;;;;;0.60;0.60;;;;;;;28.22;30.23;99787.31;5011654;28;20056;-80
2023/08/21 09:52:59;;;;;;;;;;;;;;;28.69;29.47;99787.44;5045895;28;20042;-80
2023/08/21 09:55:48;;;;;;;0.60;0.60;;;;;;;28.73;28.23;99791.88;5025274;28;19948;-81
2023/08/21 09:58:18;;;;;;;0.68;0.68;;;;;;;28.69;28.00;99790.25;5035855;28;20143;-80
2023/08/21 10:00:48;;;;;;;0.60;0.60;;;;;;;28.99;27.39;99791.91;5027979;28;20095;-80
2023/08/21 10:03:20;;;;;;;0.60;0.60;;;;;;;29.63;27.18;99792.25;5035205;28;20046;-79
2023/08/21 10:05:48;;;;;;;0.70;0.70;;;;;;;29.99;26.47;99790.13;5047546;28;20033;-80
2023/08/21 10:08:16;;;;;;;0.70;0.70;;;;;;;30.58;25.85;99778.59;5040397;28;20049;-82
2023/08/21 10:10:42;;;;;;;0.70;0.70;;;;;;;31.20;25.00;99778.94;5038845;28;20080;-80
2023/08/21 10:13:11;;;;;;;;;;;;;;;31.73;24.35;99776.81;5037000;28;20468;-80
2023/08/21 10:15:39;;;;;;;0.70;0.70;;;;;;;31.80;23.86;99778.78;5044140;28;19931;-81
2023/08/21 10:18:20;;;;;;;0.60;0.60;;;;;;;31.68;23.83;99777.25;5052601;28;20049;-73
2023/08/21 10:20:47;;;;;;;0.63;0.63;;;;;;;31.94;23.74;99767.28;5045913;28;20041;-73
2023/08/21 10:23:23;;;;;;;;;;;;;;;32.74;22.70;99773.88;5028429;28;20060;-73
2023/08/21 10:25:55;;;;;;;0.60;0.60;;;;;;;33.07;22.27;99772.16;5045178;28;19925;-73
2023/08/21 10:28:23;;;;;;;0.60;0.60;;;;;;;33.02;22.53;99766.16;5025739;28;20050;-74
2023/08/21 10:30:51;;;;;;;0.63;0.63;;;;;;;33.35;21.53;99772.06;5009045;28;20051;-73
2023/08/21 10:33:37;;;;;;;0.70;0.70;;;;;;;33.53;21.45;99766.09;5059479;28;20582;-73
2023/08/21 10:36:04;;;;;;;0.70;0.70;;;;;;;33.39;21.93;99767.13;5039323;28;20045;-73
2023/08/21 10:38:30;;;;;;;;;;;;;;;33.81;21.92;99766.75;5051313;28;20060;-73
2023/08/21 10:41:07;;;;;;;0.80;0.80;;;;;;;33.94;20.58;99761.22;5029618;28;19925;-75
2023/08/21 10:43:43;;;;;;;0.75;0.75;;;;;;;33.70;20.98;99758.44;5027861;28;20045;-73
2023/08/21 10:46:10;;;;;;;0.90;0.90;;;;;;;33.86;20.61;99759.75;4682171;28;9999976;-74
2023/08/21 10:48:37;;;;;;;0.90;0.90;;;;;;;33.94;20.28;99753.50;5039042;28;20140;-74
2023/08/21 10:51:05;;;;;;;0.90;0.90;;;;;;;34.05;20.61;99753.31;5033968;28;20443;-73
2023/08/21 10:53:33;;;;;;;0.90;0.90;;;;;;;34.22;20.99;99747.69;5016340;28;20365;-72
2023/08/21 10:56:02;;;;;;;1.00;1.00;;;;;;;34.03;20.62;99741.63;5038667;28;20078;-73
2023/08/21 10:58:34;;;;;;;1.05;1.05;;;;;;;34.26;20.40;99741.91;5019690;28;20041;-74
2023/08/21 11:01:02;;;;;;;1.10;1.10;;;;;;;35.08;19.87;99737.56;5044425;28;20076;-72
2023/08/21 11:03:29;;;;;;;1.10;1.10;;;;;;;35.47;19.79;99735.69;5029345;28;20464;-74
2023/08/21 11:06:07;;;;;;;1.10;1.10;;;;;;;35.58;19.25;99741.09;5029498;28;20071;-73
2023/08/21 11:08:34;;;;;;;0.40;0.40;;;;;;;34.49;19.83;99735.28;5029821;28;20075;-73
2023/08/21 11:11:00;;;;;;;;;;;;;;;32.30;22.24;99746.19;5041792;28;20049;-73
2023/08/21 11:13:26;;;;;;;1.20;1.20;;;;;;;32.41;21.93;99734.78;5040574;28;20414;-73
2023/08/21 11:15:59;;;;;;;1.20;1.20;;;;;;;33.28;20.96;99729.72;5042823;28;20048;-73
2023/08/21 11:18:35;;;;;;;1.23;1.20;;;;;;;34.28;20.15;99743.06;5046861;28;20045;-73
2023/08/21 11:21:08;;;;;;;1.30;1.20;;;;;;;35.21;19.16;99730.69;5047214;28;20037;-73
2023/08/21 11:23:38;;;;;;;1.23;1.20;;;;;;;36.39;17.63;99724.06;5044138;28;20053;-72
2023/08/21 11:26:05;;;;;;;1.30;1.20;;;;;;;36.84;16.80;99724.25;5043790;28;20068;-73
2023/08/21 11:28:32;;;;;;;1.30;1.20;;;;;;;37.27;17.10;99727.66;5043481;28;20052;-74
2023/08/21 11:30:59;;;;;;;1.40;1.30;;;;;;;37.37;16.67;99719.97;5046418;28;20048;-81
2023/08/21 11:33:28;;;;;;;1.40;1.30;;;;;;;37.69;16.49;99718.00;5060516;28;20052;-80
2023/08/21 11:35:57;;;;;;;1.40;1.30;;;;;;;37.89;16.41;99723.38;5035655;28;20099;-73
2023/08/21 11:38:27;;;;;;;1.40;1.30;;;;;;;38.00;16.42;99717.28;5043975;28;20056;-73